sensor_id;sensor_type;location;lat;lon;timestamp;pressure;altitude;pressure_sealevel;temperature;humidity
11692;BME280;33659;42.672;23.354;2024-03-22T00:01:52;68137.28;;;10.79;41.17
11692;BME280;33659;42.672;23.354;2024-03-22T00:04:19;68130.25;;;10.73;41.08
11692;BME280;33659;42.672;23.354;2024-03-22T00:06:48;68120.53;;;10.64;40.66
11692;BME280;33659;42.672;23.354;2024-03-22T00:09:15;68114.56;;;10.58;40.65
11692;BME280;33659;42.672;23.354;2024-03-22T00:11:42;68108.50;;;10.50;40.76
11692;BME280;33659;42.672;23.354;2024-03-22T00:14:09;68104.28;;;10.48;40.91
11692;BME280;33659;42.672;23.354;2024-03-22T00:16:36;68103.50;;;10.43;40.56
11692;BME280;33659;42.672;23.354;2024-03-22T00:19:03;68096.59;;;10.39;40.87
11692;BME280;33659;42.672;23.354;2024-03-22T00:21:31;68097.25;;;10.42;41.13
11692;BME280;33659;42.672;23.354;2024-03-22T00:23:57;68090.09;;;10.33;40.92
11692;BME280;33659;42.672;23.354;2024-03-22T00:26:24;68084.16;;;10.27;41.03
11692;BME280;33659;42.672;23.354;2024-03-22T00:28:49;68080.34;;;10.23;41.73
11692;BME280;33659;42.672;23.354;2024-03-22T00:31:16;68072.34;;;10.18;41.51
11692;BME280;33659;42.672;23.354;2024-03-22T00:33:42;68069.53;;;10.13;40.89
11692;BME280;33659;42.672;23.354;2024-03-22T00:36:09;68042.47;;;9.88;41.89
11692;BME280;33659;42.672;23.354;2024-03-22T00:38:36;68031.13;;;9.77;41.83
11692;BME280;33659;42.672;23.354;2024-03-22T00:41:03;68022.03;;;9.71;42.00
11692;BME280;33659;42.672;23.354;2024-03-22T00:43:29;68016.63;;;9.66;41.10
11692;BME280;33659;42.672;23.354;2024-03-22T00:45:55;68005.69;;;9.53;41.79
11692;BME280;33659;42.672;23.354;2024-03-22T00:48:21;68005.81;;;9.56;42.31
11692;BME280;33659;42.672;23.354;2024-03-22T00:50:48;68008.94;;;9.56;42.32
11692;BME280;33659;42.672;23.354;2024-03-22T00:53:13;68012.84;;;9.62;41.91
11692;BME280;33659;42.672;23.354;2024-03-22T00:55:41;68014.91;;;9.62;42.49
11692;BME280;33659;42.672;23.354;2024-03-22T00:58:07;67992.31;;;9.43;43.06
11692;BME280;33659;42.672;23.354;2024-03-22T01:00:33;67958.78;;;9.11;43.79
11692;BME280;33659;42.672;23.354;2024-03-22T01:02:59;67931.13;;;8.83;44.73
11692;BME280;33659;42.672;23.354;2024-03-22T01:05:26;67910.16;;;8.65;45.06
11692;BME280;33659;42.672;23.354;2024-03-22T01:07:51;67889.63;;;8.46;44.87
11692;BME280;33659;42.672;23.354;2024-03-22T01:10:18;67887.03;;;8.46;44.88
11692;BME280;33659;42.672;23.354;2024-03-22T01:12:45;67881.53;;;8.38;44.87
11692;BME280;33659;42.672;23.354;2024-03-22T01:15:12;67877.72;;;8.35;43.17
11692;BME280;33659;42.672;23.354;2024-03-22T01:17:38;67880.44;;;8.37;43.36
11692;BME280;33659;42.672;23.354;2024-03-22T01:20:05;67886.91;;;8.44;42.55
11692;BME280;33659;42.672;23.354;2024-03-22T01:22:30;67891.38;;;8.50;42.67
11692;BME280;33659;42.672;23.354;2024-03-22T01:24:57;67902.59;;;8.58;43.30
11692;BME280;33659;42.672;23.354;2024-03-22T01:27:23;67906.91;;;8.62;43.32
11692;BME280;33659;42.672;23.354;2024-03-22T01:29:51;67910.69;;;8.66;42.05
11692;BME280;33659;42.672;23.354;2024-03-22T01:32:16;67909.09;;;8.64;43.18
11692;BME280;33659;42.672;23.354;2024-03-22T01:34:43;67900.97;;;8.57;42.60
11692;BME280;33659;42.672;23.354;2024-03-22T01:37:09;67903.00;;;8.56;43.39
11692;BME280;33659;42.672;23.354;2024-03-22T01:39:36;67903.69;;;8.59;43.76
11692;BME280;33659;42.672;23.354;2024-03-22T01:42:01;67915.03;;;8.70;43.36
11692;BME280;33659;42.672;23.354;2024-03-22T01:44:28;67933.94;;;8.88;43.03
11692;BME280;33659;42.672;23.354;2024-03-22T01:46:56;67945.81;;;8.99;42.63
11692;BME280;33659;42.672;23.354;2024-03-22T01:49:24;67948.53;;;9.02;42.06
11692;BME280;33659;42.672;23.354;2024-03-22T01:51:50;67959.22;;;9.09;41.88
11692;BME280;33659;42.672;23.354;2024-03-22T01:54:17;67967.97;;;9.20;41.80
11692;BME280;33659;42.672;23.354;2024-03-22T01:56:43;67977.59;;;9.27;42.60
11692;BME280;33659;42.672;23.354;2024-03-22T01:59:10;67984.19;;;9.35;43.22
11692;BME280;33659;42.672;23.354;2024-03-22T02:01:36;67990.69;;;9.41;42.88
11692;BME280;33659;42.672;23.354;2024-03-22T02:04:04;68003.66;;;9.54;42.77
11692;BME280;33659;42.672;23.354;2024-03-22T02:06:29;68014.47;;;9.64;42.53
11692;BME280;33659;42.672;23.354;2024-03-22T02:08:56;68020.41;;;9.69;42.56
11692;BME280;33659;42.672;23.354;2024-03-22T02:11:22;68023.13;;;9.72;42.84
11692;BME280;33659;42.672;23.354;2024-03-22T02:13:49;68023.69;;;9.72;42.82
11692;BME280;33659;42.672;23.354;2024-03-22T02:16:15;68024.75;;;9.73;43.15
11692;BME280;33659;42.672;23.354;2024-03-22T02:18:42;68031.13;;;9.77;43.41
11692;BME280;33659;42.672;23.354;2024-03-22T02:21:09;68030.16;;;9.78;43.01
11692;BME280;33659;42.672;23.354;2024-03-22T02:23:38;68025.84;;;9.74;43.39
11692;BME280;33659;42.672;23.354;2024-03-22T02:26:04;68025.16;;;9.71;43.77
11692;BME280;33659;42.672;23.354;2024-03-22T02:28:31;68024.09;;;9.70;43.91
11692;BME280;33659;42.672;23.354;2024-03-22T02:30:58;68019.88;;;9.69;44.12
11692;BME280;33659;42.672;23.354;2024-03-22T02:33:24;68021.38;;;9.68;44.72
11692;BME280;33659;42.672;23.354;2024-03-22T02:35:50;68018.25;;;9.67;44.84
11692;BME280;33659;42.672;23.354;2024-03-22T02:38:17;68021.50;;;9.70;44.35
11692;BME280;33659;42.672;23.354;2024-03-22T02:40:45;68018.25;;;9.67;44.26
11692;BME280;33659;42.672;23.354;2024-03-22T02:43:12;68018.25;;;9.67;44.58
11692;BME280;33659;42.672;23.354;2024-03-22T02:45:38;68017.06;;;9.64;44.08
11692;BME280;33659;42.672;23.354;2024-03-22T02:48:05;68008.53;;;9.58;44.02
11692;BME280;33659;42.672;23.354;2024-03-22T02:50:32;68016.41;;;9.61;44.00
11692;BME280;33659;42.672;23.354;2024-03-22T02:52:59;68004.22;;;9.54;44.42
11692;BME280;33659;42.672;23.354;2024-03-22T02:55:25;68012.84;;;9.62;44.19
11692;BME280;33659;42.672;23.354;2024-03-22T02:57:53;68012.75;;;9.60;44.64
11692;BME280;33659;42.672;23.354;2024-03-22T03:00:19;68014.38;;;9.61;45.24
11692;BME280;33659;42.672;23.354;2024-03-22T03:02:46;68014.91;;;9.62;45.45
11692;BME280;33659;42.672;23.354;2024-03-22T03:05:11;68006.25;;;9.54;45.54
11692;BME280;33659;42.672;23.354;2024-03-22T03:07:38;67998.25;;;9.48;45.85
11692;BME280;33659;42.672;23.354;2024-03-22T03:10:04;67991.78;;;9.42;45.30
11692;BME280;33659;42.672;23.354;2024-03-22T03:12:31;67990.03;;;9.38;44.98
11692;BME280;33659;42.672;23.354;2024-03-22T03:14:59;67980.94;;;9.32;45.32
11692;BME280;33659;42.672;23.354;2024-03-22T03:17:25;67978.13;;;9.27;45.37
11692;BME280;33659;42.672;23.354;2024-03-22T03:19:51;67963.78;;;9.18;45.69
11692;BME280;33659;42.672;23.354;2024-03-22T03:22:18;67958.78;;;9.11;45.43
11692;BME280;33659;42.672;23.354;2024-03-22T03:24:43;67942.06;;;8.95;45.81
11692;BME280;33659;42.672;23.354;2024-03-22T03:27:10;67928.53;;;8.83;45.95
11692;BME280;33659;42.672;23.354;2024-03-22T03:29:36;67924.75;;;8.79;45.55
11692;BME280;33659;42.672;23.354;2024-03-22T03:32:04;67925.19;;;8.77;45.48
11692;BME280;33659;42.672;23.354;2024-03-22T03:34:30;67923.66;;;8.78;44.97
11692;BME280;33659;42.672;23.354;2024-03-22T03:36:57;67923.13;;;8.78;44.73
11692;BME280;33659;42.672;23.354;2024-03-22T03:39:26;67921.50;;;8.76;45.01
11692;BME280;33659;42.672;23.354;2024-03-22T03:41:52;67920.94;;;8.76;44.90
11692;BME280;33659;42.672;23.354;2024-03-22T03:44:18;67926.91;;;8.81;45.13
11692;BME280;33659;42.672;23.354;2024-03-22T03:46:45;67927.44;;;8.82;45.32
11692;BME280;33659;42.672;23.354;2024-03-22T03:49:12;67928.53;;;8.83;45.29
11692;BME280;33659;42.672;23.354;2024-03-22T03:51:38;67926.78;;;8.79;45.48
11692;BME280;33659;42.672;23.354;2024-03-22T03:54:04;67924.22;;;8.79;45.40
11692;BME280;33659;42.672;23.354;2024-03-22T03:56:31;67918.81;;;8.74;45.09
11692;BME280;33659;42.672;23.354;2024-03-22T03:58:57;67887.47;;;8.44;45.31
11692;BME280;33659;42.672;23.354;2024-03-22T04:01:23;67844.78;;;8.04;46.08
11692;BME280;33659;42.672;23.354;2024-03-22T04:03:49;67792.41;;;7.54;47.29
11692;BME280;33659;42.672;23.354;2024-03-22T04:06:17;67753.53;;;7.18;48.65
11692;BME280;33659;42.672;23.354;2024-03-22T04:08:43;67711.84;;;6.76;49.53
11692;BME280;33659;42.672;23.354;2024-03-22T04:11:10;67668.97;;;6.40;50.45
11692;BME280;33659;42.672;23.354;2024-03-22T04:13:37;67654.81;;;6.24;51.21
11692;BME280;33659;42.672;23.354;2024-03-22T04:16:04;67638.09;;;6.09;51.79
11692;BME280;33659;42.672;23.354;2024-03-22T04:18:30;67635.81;;;6.04;51.81
11692;BME280;33659;42.672;23.354;2024-03-22T04:20:58;67625.69;;;5.97;52.65
11692;BME280;33659;42.672;23.354;2024-03-22T04:23:26;67621.94;;;5.93;52.30
11692;BME280;33659;42.672;23.354;2024-03-22T04:25:54;67627.31;;;5.98;52.45
11692;BME280;33659;42.672;23.354;2024-03-22T04:28:19;67632.72;;;6.04;52.47
11692;BME280;33659;42.672;23.354;2024-03-22T04:30:55;67643.50;;;6.14;52.49
11692;BME280;33659;42.672;23.354;2024-03-22T04:33:21;67654.28;;;6.24;52.10
11692;BME280;33659;42.672;23.354;2024-03-22T04:35:47;67664.94;;;6.32;51.54
11692;BME280;33659;42.672;23.354;2024-03-22T04:38:13;67681.25;;;6.49;50.93
11692;BME280;33659;42.672;23.354;2024-03-22T04:40:41;67691.50;;;6.59;50.92
11692;BME280;33659;42.672;23.354;2024-03-22T04:43:08;67707.56;;;6.72;50.49
11692;BME280;33659;42.672;23.354;2024-03-22T04:45:35;67721.69;;;6.88;49.83
11692;BME280;33659;42.672;23.354;2024-03-22T04:48:01;67733.03;;;6.98;49.44
11692;BME280;33659;42.672;23.354;2024-03-22T04:50:28;67738.44;;;7.03;49.31
11692;BME280;33659;42.672;23.354;2024-03-22T04:52:54;67743.84;;;7.09;49.33
11692;BME280;33659;42.672;23.354;2024-03-22T04:55:21;67750.44;;;7.17;48.92
11692;BME280;33659;42.672;23.354;2024-03-22T04:57:49;67754.63;;;7.19;49.08
11692;BME280;33659;42.672;23.354;2024-03-22T05:00:16;67768.66;;;7.32;49.18
11692;BME280;33659;42.672;23.354;2024-03-22T05:02:42;67788.09;;;7.50;48.89
11692;BME280;33659;42.672;23.354;2024-03-22T05:05:08;67811.81;;;7.73;49.03
11692;BME280;33659;42.672;23.354;2024-03-22T05:07:35;67831.81;;;7.92;48.29
11692;BME280;33659;42.672;23.354;2024-03-22T05:10:02;67854.91;;;8.11;47.91
11692;BME280;33659;42.672;23.354;2024-03-22T05:12:28;67875.03;;;8.32;47.55
11692;BME280;33659;42.672;23.354;2024-03-22T05:14:56;67889.09;;;8.46;47.60
11692;BME280;33659;42.672;23.354;2024-03-22T05:17:22;67904.31;;;8.62;47.69
11692;BME280;33659;42.672;23.354;2024-03-22T05:19:48;67918.81;;;8.74;47.07
11692;BME280;33659;42.672;23.354;2024-03-22T05:22:15;67931.13;;;8.83;47.07
11692;BME280;33659;42.672;23.354;2024-03-22T05:24:42;67942.06;;;8.95;46.57
11692;BME280;33659;42.672;23.354;2024-03-22T05:27:07;67959.22;;;9.09;46.04
11692;BME280;33659;42.672;23.354;2024-03-22T05:29:34;67969.63;;;9.21;45.67
11692;BME280;33659;42.672;23.354;2024-03-22T05:32:01;67985.28;;;9.36;45.82
11692;BME280;33659;42.672;23.354;2024-03-22T05:34:29;67991.22;;;9.42;46.43
11692;BME280;33659;42.672;23.354;2024-03-22T05:36:54;68012.19;;;9.59;47.15
11692;BME280;33659;42.672;23.354;2024-03-22T05:39:21;68018.25;;;9.67;47.12
11692;BME280;33659;42.672;23.354;2024-03-22T05:41:50;68032.31;;;9.81;47.41
11692;BME280;33659;42.672;23.354;2024-03-22T05:44:21;68047.47;;;9.95;47.25
11692;BME280;33659;42.672;23.354;2024-03-22T05:46:46;68065.19;;;10.09;45.75
11692;BME280;33659;42.672;23.354;2024-03-22T05:49:14;68081.44;;;10.24;45.46
11692;BME280;33659;42.672;23.354;2024-03-22T05:51:40;68087.50;;;10.33;43.98
11692;BME280;33659;42.672;23.354;2024-03-22T05:54:07;68097.13;;;10.39;44.44
11692;BME280;33659;42.672;23.354;2024-03-22T05:56:32;68098.22;;;10.40;43.95
11692;BME280;33659;42.672;23.354;2024-03-22T05:58:59;68103.09;;;10.45;43.68
11692;BME280;33659;42.672;23.354;2024-03-22T06:01:25;68109.59;;;10.51;43.34
11692;BME280;33659;42.672;23.354;2024-03-22T06:03:52;68117.16;;;10.58;43.47
11692;BME280;33659;42.672;23.354;2024-03-22T06:06:19;68112.94;;;10.56;43.01
11692;BME280;33659;42.672;23.354;2024-03-22T06:08:47;68117.56;;;10.56;42.96
11692;BME280;33659;42.672;23.354;2024-03-22T06:11:17;68109.16;;;10.53;42.79
11692;BME280;33659;42.672;23.354;2024-03-22T06:13:44;68114.44;;;10.55;42.85
11692;BME280;33659;42.672;23.354;2024-03-22T06:16:10;68112.81;;;10.54;42.73
11692;BME280;33659;42.672;23.354;2024-03-22T06:18:37;68116.63;;;10.57;43.03
11692;BME280;33659;42.672;23.354;2024-03-22T06:21:03;68122.03;;;10.63;43.41
11692;BME280;33659;42.672;23.354;2024-03-22T06:23:31;68127.03;;;10.70;42.83
11692;BME280;33659;42.672;23.354;2024-03-22T06:25:57;68128.50;;;10.69;42.67
11692;BME280;33659;42.672;23.354;2024-03-22T06:28:27;68134.06;;;10.76;42.42
11692;BME280;33659;42.672;23.354;2024-03-22T06:30:53;68135.00;;;10.75;42.03
11692;BME280;33659;42.672;23.354;2024-03-22T06:33:20;68104.16;;;10.46;41.63
11692;BME280;33659;42.672;23.354;2024-03-22T06:35:45;68129.06;;;10.69;40.87
11692;BME280;33659;42.672;23.354;2024-03-22T06:38:12;68122.69;;;10.66;40.98
11692;BME280;33659;42.672;23.354;2024-03-22T06:40:39;68125.28;;;10.66;41.18
11692;BME280;33659;42.672;23.354;2024-03-22T06:43:06;68127.56;;;10.70;41.09
11692;BME280;33659;42.672;23.354;2024-03-22T06:45:32;68130.69;;;10.71;41.33
11692;BME280;33659;42.672;23.354;2024-03-22T06:47:58;68134.06;;;10.76;41.31
11692;BME280;33659;42.672;23.354;2024-03-22T06:50:24;68143.25;;;10.85;41.41
11692;BME280;33659;42.672;23.354;2024-03-22T06:52:51;68151.34;;;10.93;41.05
11692;BME280;33659;42.672;23.354;2024-03-22T06:55:17;68155.16;;;10.96;41.38
11692;BME280;33659;42.672;23.354;2024-03-22T06:57:45;68143.25;;;10.85;41.41
11692;BME280;33659;42.672;23.354;2024-03-22T07:00:12;68131.88;;;10.74;41.97
11692;BME280;33659;42.672;23.354;2024-03-22T07:02:39;68148.00;;;10.87;42.40
11692;BME280;33659;42.672;23.354;2024-03-22T07:05:05;68161.13;;;11.02;42.20
11692;BME280;33659;42.672;23.354;2024-03-22T07:07:32;68180.91;;;11.16;42.06
11692;BME280;33659;42.672;23.354;2024-03-22T07:09:58;68178.31;;;11.16;41.62
11692;BME280;33659;42.672;23.354;2024-03-22T07:12:25;68174.53;;;11.12;41.80
11692;BME280;33659;42.672;23.354;2024-03-22T07:14:52;68167.38;;;11.03;42.57
11692;BME280;33659;42.672;23.354;2024-03-22T07:17:18;68174.53;;;11.12;42.06
11692;BME280;33659;42.672;23.354;2024-03-22T07:19:49;68167.50;;;11.05;42.01
11692;BME280;33659;42.672;23.354;2024-03-22T07:22:16;68164.13;;;11.00;41.82
11692;BME280;33659;42.672;23.354;2024-03-22T07:24:42;68170.63;;;11.06;41.81
11692;BME280;33659;42.672;23.354;2024-03-22T07:27:08;68176.13;;;11.13;41.80
11692;BME280;33659;42.672;23.354;2024-03-22T07:29:34;68178.44;;;11.18;42.09
11692;BME280;33659;42.672;23.354;2024-03-22T07:32:02;68183.31;;;11.23;41.77
11692;BME280;33659;42.672;23.354;2024-03-22T07:34:28;68194.44;;;11.28;41.94
11692;BME280;33659;42.672;23.354;2024-03-22T07:36:55;68195.63;;;11.32;41.82
11692;BME280;33659;42.672;23.354;2024-03-22T07:39:21;68211.88;;;11.47;41.72
11692;BME280;33659;42.672;23.354;2024-03-22T07:41:48;68213.50;;;11.49;41.36
11692;BME280;33659;42.672;23.354;2024-03-22T07:44:14;68213.50;;;11.49;41.36
11692;BME280;33659;42.672;23.354;2024-03-22T07:46:43;68209.16;;;11.45;41.14
11692;BME280;33659;42.672;23.354;2024-03-22T07:49:11;68204.84;;;11.41;41.09
11692;BME280;33659;42.672;23.354;2024-03-22T07:51:37;68195.22;;;11.34;41.49
11692;BME280;33659;42.672;23.354;2024-03-22T07:54:03;68213.50;;;11.49;41.15
11692;BME280;33659;42.672;23.354;2024-03-22T07:56:30;68221.63;;;11.56;40.94
11692;BME280;33659;42.672;23.354;2024-03-22T07:58:55;68225.53;;;11.62;40.82
11692;BME280;33659;42.672;23.354;2024-03-22T08:01:22;68230.41;;;11.67;40.70
11692;BME280;33659;42.672;23.354;2024-03-22T08:03:48;68234.09;;;11.68;40.60
11692;BME280;33659;42.672;23.354;2024-03-22T08:06:17;68230.28;;;11.64;40.78
11692;BME280;33659;42.672;23.354;2024-03-22T08:08:44;68228.66;;;11.63;40.88
11692;BME280;33659;42.672;23.354;2024-03-22T08:11:12;68228.13;;;11.62;40.45
11692;BME280;33659;42.672;23.354;2024-03-22T08:13:38;68218.94;;;11.54;40.12
11692;BME280;33659;42.672;23.354;2024-03-22T08:16:05;68208.09;;;11.44;40.51
11692;BME280;33659;42.672;23.354;2024-03-22T08:18:31;68208.63;;;11.44;40.53
11692;BME280;33659;42.672;23.354;2024-03-22T08:20:58;68209.16;;;11.45;40.65
11692;BME280;33659;42.672;23.354;2024-03-22T08:23:26;68216.75;;;11.52;40.56
11692;BME280;33659;42.672;23.354;2024-03-22T08:25:52;68220.66;;;11.58;40.51
11692;BME280;33659;42.672;23.354;2024-03-22T08:28:18;68204.53;;;11.45;40.73
11692;BME280;33659;42.672;23.354;2024-03-22T08:30:45;68205.94;;;11.42;41.08
11692;BME280;33659;42.672;23.354;2024-03-22T08:33:11;68213.50;;;11.49;40.98
11692;BME280;33659;42.672;23.354;2024-03-22T08:35:37;68218.94;;;11.54;40.77
11692;BME280;33659;42.672;23.354;2024-03-22T08:38:03;68229.22;;;11.63;40.75
11692;BME280;33659;42.672;23.354;2024-03-22T08:40:36;68237.44;;;11.74;40.50
11692;BME280;33659;42.672;23.354;2024-03-22T08:43:03;68236.25;;;11.70;40.57
11692;BME280;33659;42.672;23.354;2024-03-22T08:45:30;68236.25;;;11.70;40.51
11692;BME280;33659;42.672;23.354;2024-03-22T08:47:55;68238.00;;;11.74;40.45
11692;BME280;33659;42.672;23.354;2024-03-22T08:50:22;68242.75;;;11.76;40.11
11692;BME280;33659;42.672;23.354;2024-03-22T08:52:48;68251.44;;;11.84;39.88
11692;BME280;33659;42.672;23.354;2024-03-22T08:55:14;68259.56;;;11.92;40.05
11692;BME280;33659;42.672;23.354;2024-03-22T08:57:41;68278.41;;;12.07;40.16
11692;BME280;33659;42.672;23.354;2024-03-22T09:00:09;68284.47;;;12.15;39.81
11692;BME280;33659;42.672;23.354;2024-03-22T09:02:36;68299.09;;;12.29;39.70
11692;BME280;33659;42.672;23.354;2024-03-22T09:05:03;68299.75;;;12.32;38.84
11692;BME280;33659;42.672;23.354;2024-03-22T09:07:29;68296.94;;;12.27;39.31
11692;BME280;33659;42.672;23.354;2024-03-22T09:09:56;68283.94;;;12.15;39.42
11692;BME280;33659;42.672;23.354;2024-03-22T09:12:21;68292.06;;;12.23;38.66
11692;BME280;33659;42.672;23.354;2024-03-22T09:14:49;68291.41;;;12.19;38.79
11692;BME280;33659;42.672;23.354;2024-03-22T09:17:15;68279.19;;;12.13;38.77
11692;BME280;33659;42.672;23.354;2024-03-22T09:19:42;68281.78;;;12.13;39.24
11692;BME280;33659;42.672;23.354;2024-03-22T09:22:07;68285.56;;;12.16;39.34
11692;BME280;33659;42.672;23.354;2024-03-22T09:24:34;68285.56;;;12.16;39.58
11692;BME280;33659;42.672;23.354;2024-03-22T09:27:00;68300.22;;;12.30;39.20
11692;BME280;33659;42.672;23.354;2024-03-22T09:29:29;68305.19;;;12.37;38.96
11692;BME280;33659;42.672;23.354;2024-03-22T09:31:56;68314.41;;;12.46;38.79
11692;BME280;33659;42.672;23.354;2024-03-22T09:34:23;68330.97;;;12.57;38.50
11692;BME280;33659;42.672;23.354;2024-03-22T09:36:48;68332.16;;;12.60;38.04
11692;BME280;33659;42.672;23.354;2024-03-22T09:39:15;68332.59;;;12.58;37.79
11692;BME280;33659;42.672;23.354;2024-03-22T09:41:42;68333.13;;;12.59;38.36
11692;BME280;33659;42.672;23.354;2024-03-22T09:44:12;68330.00;;;12.58;38.65
11692;BME280;33659;42.672;23.354;2024-03-22T09:46:39;68341.81;;;12.67;38.42
11692;BME280;33659;42.672;23.354;2024-03-22T09:49:08;68356.97;;;12.81;37.92
11692;BME280;33659;42.672;23.354;2024-03-22T09:51:36;68367.38;;;12.93;37.88
11692;BME280;33659;42.672;23.354;2024-03-22T09:54:03;68369.13;;;12.97;37.54
11692;BME280;33659;42.672;23.354;2024-03-22T09:56:30;68377.16;;;13.02;37.46
11692;BME280;33659;42.672;23.354;2024-03-22T09:58:57;68377.16;;;13.02;37.69
11692;BME280;33659;42.672;23.354;2024-03-22T10:01:24;68396.69;;;13.21;37.40
11692;BME280;33659;42.672;23.354;2024-03-22T10:03:51;68408.63;;;13.32;39.13
11692;BME280;33659;42.672;23.354;2024-03-22T10:06:19;68435.19;;;13.57;38.84
11692;BME280;33659;42.672;23.354;2024-03-22T10:08:45;68450.38;;;13.71;36.83
11692;BME280;33659;42.672;23.354;2024-03-22T10:11:11;68454.72;;;13.75;38.14
11692;BME280;33659;42.672;23.354;2024-03-22T10:13:38;68472.09;;;13.92;37.73
11692;BME280;33659;42.672;23.354;2024-03-22T10:16:04;68471.53;;;13.91;35.98
11692;BME280;33659;42.672;23.354;2024-03-22T10:18:32;68475.78;;;13.93;36.37
11692;BME280;33659;42.672;23.354;2024-03-22T10:20:59;68480.22;;;13.99;36.17
11692;BME280;33659;42.672;23.354;2024-03-22T10:23:29;68508.88;;;14.24;36.44
11692;BME280;33659;42.672;23.354;2024-03-22T10:25:56;68524.69;;;14.41;36.09
11692;BME280;33659;42.672;23.354;2024-03-22T10:28:23;68538.28;;;14.54;35.88
11692;BME280;33659;42.672;23.354;2024-03-22T10:30:52;68546.00;;;14.63;34.92
11692;BME280;33659;42.672;23.354;2024-03-22T10:33:19;68560.53;;;14.75;35.85
11692;BME280;33659;42.672;23.354;2024-03-22T10:35:46;68554.03;;;14.69;34.47
11692;BME280;33659;42.672;23.354;2024-03-22T10:38:12;68556.09;;;14.68;34.43
11692;BME280;33659;42.672;23.354;2024-03-22T10:40:40;68568.59;;;14.80;35.11
11692;BME280;33659;42.672;23.354;2024-03-22T10:43:10;68583.22;;;14.94;34.63
11692;BME280;33659;42.672;23.354;2024-03-22T10:45:36;68595.84;;;15.08;34.93
11692;BME280;33659;42.672;23.354;2024-03-22T10:48:09;68594.09;;;15.04;34.74
11692;BME280;33659;42.672;23.354;2024-03-22T10:50:38;68606.59;;;15.15;34.02
11692;BME280;33659;42.672;23.354;2024-03-22T10:53:07;68617.97;;;15.26;34.28
11692;BME280;33659;42.672;23.354;2024-03-22T10:55:37;68658.75;;;15.64;34.00
11692;BME280;33659;42.672;23.354;2024-03-22T10:58:05;68685.34;;;15.89;32.88
11692;BME280;33659;42.672;23.354;2024-03-22T11:00:33;68683.72;;;15.88;32.62
11692;BME280;33659;42.672;23.354;2024-03-22T11:03:02;68657.66;;;15.63;33.21
11692;BME280;33659;42.672;23.354;2024-03-22T11:05:29;68647.31;;;15.54;32.69
11692;BME280;33659;42.672;23.354;2024-03-22T11:08:01;68630.06;;;15.40;32.79
11692;BME280;33659;42.672;23.354;2024-03-22T11:10:30;68599.53;;;15.09;33.18
11692;BME280;33659;42.672;23.354;2024-03-22T11:12:55;68602.25;;;15.11;33.09
11692;BME280;33659;42.672;23.354;2024-03-22T11:15:23;68623.97;;;15.32;33.98
11692;BME280;33659;42.672;23.354;2024-03-22T11:17:49;68659.31;;;15.65;33.41
11692;BME280;33659;42.672;23.354;2024-03-22T11:20:16;68666.34;;;15.72;32.50
11692;BME280;33659;42.672;23.354;2024-03-22T11:22:42;68679.38;;;15.84;32.40
11692;BME280;33659;42.672;23.354;2024-03-22T11:25:09;68704.38;;;16.07;32.18
11692;BME280;33659;42.672;23.354;2024-03-22T11:27:35;68726.09;;;16.28;30.92
11692;BME280;33659;42.672;23.354;2024-03-22T11:30:01;68741.31;;;16.42;31.31
11692;BME280;33659;42.672;23.354;2024-03-22T11:32:29;68774.41;;;16.70;30.57
11692;BME280;33659;42.672;23.354;2024-03-22T11:34:56;68804.50;;;17.03;30.53
11692;BME280;33659;42.672;23.354;2024-03-22T11:37:22;68845.19;;;17.39;30.32
11692;BME280;33659;42.672;23.354;2024-03-22T11:39:49;68882.19;;;17.74;30.04
11692;BME280;33659;42.672;23.354;2024-03-22T11:42:15;68908.84;;;17.99;28.94
11692;BME280;33659;42.672;23.354;2024-03-22T11:44:43;68926.25;;;18.15;29.21
11692;BME280;33659;42.672;23.354;2024-03-22T11:47:09;68924.19;;;18.16;28.55
11692;BME280;33659;42.672;23.354;2024-03-22T11:49:37;68917.56;;;18.07;28.58
11692;BME280;33659;42.672;23.354;2024-03-22T11:52:03;68919.72;;;18.09;29.52
11692;BME280;33659;42.672;23.354;2024-03-22T11:54:30;68909.94;;;18.00;27.82
11692;BME280;33659;42.672;23.354;2024-03-22T11:56:56;68895.25;;;17.86;28.52
11692;BME280;33659;42.672;23.354;2024-03-22T11:59:23;68901.13;;;17.89;28.51
11692;BME280;33659;42.672;23.354;2024-03-22T12:01:48;68905.59;;;17.96;30.14
11692;BME280;33659;42.672;23.354;2024-03-22T12:04:15;68930.06;;;18.19;28.68
11692;BME280;33659;42.672;23.354;2024-03-22T12:06:42;68934.88;;;18.21;28.44
11692;BME280;33659;42.672;23.354;2024-03-22T12:09:10;68939.78;;;18.25;28.93
11692;BME280;33659;42.672;23.354;2024-03-22T12:11:37;68943.03;;;18.28;28.29
11692;BME280;33659;42.672;23.354;2024-03-22T12:14:04;68973.59;;;18.59;28.09
11692;BME280;33659;42.672;23.354;2024-03-22T12:16:30;68973.50;;;18.57;27.33
11692;BME280;33659;42.672;23.354;2024-03-22T12:18:57;68951.28;;;18.38;27.34
11692;BME280;33659;42.672;23.354;2024-03-22T12:21:23;68930.41;;;18.14;27.83
11692;BME280;33659;42.672;23.354;2024-03-22T12:23:51;68878.34;;;17.70;28.18
11692;BME280;33659;42.672;23.354;2024-03-22T12:26:16;68844.63;;;17.39;28.58
11692;BME280;33659;42.672;23.354;2024-03-22T12:28:43;68783.22;;;16.81;29.14
11692;BME280;33659;42.672;23.354;2024-03-22T12:31:09;68787.66;;;16.88;30.11
11692;BME280;33659;42.672;23.354;2024-03-22T12:33:36;68776.69;;;16.75;29.28
11692;BME280;33659;42.672;23.354;2024-03-22T12:36:03;68796.81;;;16.94;29.57
11692;BME280;33659;42.672;23.354;2024-03-22T12:38:29;68822.88;;;17.18;30.28
11692;BME280;33659;42.672;23.354;2024-03-22T12:40:57;68865.88;;;17.58;28.98
11692;BME280;33659;42.672;23.354;2024-03-22T12:43:24;68877.28;;;17.69;29.60
11692;BME280;33659;42.672;23.354;2024-03-22T12:45:50;68863.13;;;17.56;28.98
11692;BME280;33659;42.672;23.354;2024-03-22T12:48:17;68832.16;;;17.27;29.03
11692;BME280;33659;42.672;23.354;2024-03-22T12:50:42;68792.44;;;16.90;29.72
11692;BME280;33659;42.672;23.354;2024-03-22T12:53:09;68762.09;;;16.64;30.08